Terminal Aerodrome Forecast
Issued by NWS

Home | Current Version | Previous Version | Text Only | Print | Product List | Glossary On
Versions: 1 2 3 4 5 6 7 8 9 10 11 12
000
FTAK31 PAJN 051122
TAFAPG
TAF
PAPG 051122Z 0512/0612 26004KT P6SM VCSH SCT050 BKN070 OVC090
     FM051600 11005KT P6SM -RA BKN030 OVC040 WS020/14030KT
     FM052000 06005KT P6SM -SHRA SCT030 OVC045
     FM060200 VRB02KT P6SM VCSH SCT030 BKN050 OVC070
     FM060900 00000KT P6SM -SHRA BKN030 OVC050
      AMD LTD TO CLD VIS AND WIND 0512/0515=

USA.gov is the U.S. government's official web portal to all federal, state and local government web resources and services.